Time;durP1;ratioP1;P1;durP2;ratioP2;P2;SDS_P1;SDS_P2;PMS_P1;PMS_P2;Temp;Humidity;BMP_temperature;BMP_pressure;BME280_temperature;BME280_humidity;BME280_pressure;Samples;Min_cycle;Max_cycle;Signal;HPM_P1;HPM_P2
2023/03/04 00:01:51;;;;;;;39.67;25.27;;;;;;;;;;5080329;28;20215;-86
2023/03/04 00:04:17;;;;;;;36.60;25.30;;;;;;;;;;5081599;28;20178;-85
2023/03/04 00:06:44;;;;;;;37.30;26.13;;;;;;;;;;5048298;28;20247;-85
2023/03/04 00:09:11;;;;;;;43.13;26.23;;;;;;;;;;5049549;28;20189;-85
2023/03/04 00:11:37;;;;;;;37.70;25.87;;;;;;;;;;5084778;28;20657;-86
2023/03/04 00:14:05;;;;;;;42.00;25.97;;;;;;;;;;5053733;28;20257;-85
2023/03/04 00:16:32;;;;;;;40.63;26.40;;;;;;;;;;5075749;28;20184;-85
2023/03/04 00:19:00;;;;;;;41.30;25.60;;;;;;;;;;5051397;28;20228;-85
2023/03/04 00:21:26;;;;;;;42.03;25.80;;;;;;;;;;5049466;28;20220;-85
2023/03/04 00:23:52;;;;;;;44.33;26.93;;;;;;;;;;5047383;28;20308;-86
2023/03/04 00:26:18;;;;;;;44.70;26.90;;;;;;;;;;5049311;28;20387;-86
2023/03/04 00:28:44;;;;;;;41.87;26.60;;;;;;;;;;5054229;28;20256;-86
2023/03/04 00:31:10;;;;;;;44.40;27.23;;;;;;;;;;5056069;28;20888;-86
2023/03/04 00:33:37;;;;;;;43.37;26.33;;;;;;;;;;5069609;28;20240;-85
2023/03/04 00:36:27;;;;;;;51.47;27.47;;;;;;;;;;5042116;28;20215;-85
2023/03/04 00:38:53;;;;;;;49.50;28.70;;;;;;;;;;5080219;28;20185;-86
2023/03/04 00:41:19;;;;;;;50.27;28.03;;;;;;;;;;5067255;28;20225;-86
2023/03/04 00:43:45;;;;;;;49.13;28.20;;;;;;;;;;5071939;28;20181;-84
2023/03/04 00:49:15;;;;;;;46.80;27.37;;;;;;;;;;5060290;28;20183;-86
2023/03/04 00:51:42;;;;;;;49.67;27.33;;;;;;;;;;5050405;28;20215;-86
2023/03/04 00:54:09;;;;;;;51.30;28.20;;;;;;;;;;5048689;28;20630;-85
2023/03/04 00:56:39;;;;;;;48.30;27.67;;;;;;;;;;5081618;28;20311;-86
2023/03/04 00:59:05;;;;;;;46.93;26.43;;;;;;;;;;5049985;28;20181;-85
2023/03/04 01:01:31;;;;;;;52.20;27.80;;;;;;;;;;5067338;28;20207;-85
2023/03/04 01:03:57;;;;;;;48.40;26.33;;;;;;;;;;5062331;28;20196;-85
2023/03/04 01:06:23;;;;;;;48.93;28.20;;;;;;;;;;5043306;28;20217;-86
2023/03/04 01:08:50;;;;;;;50.13;28.37;;;;;;;;;;5081782;28;20785;-86
2023/03/04 01:11:16;;;;;;;51.13;28.97;;;;;;;;;;5083543;28;20322;-85
2023/03/04 01:13:42;;;;;;;62.57;31.63;;;;;;;;;;5073045;28;20218;-85
2023/03/04 01:16:09;;;;;;;53.87;30.97;;;;;;;;;;5046609;28;20185;-85
2023/03/04 01:18:35;;;;;;;50.40;29.17;;;;;;;;;;5045235;28;20225;-86
2023/03/04 01:21:02;;;;;;;50.97;28.53;;;;;;;;;;5066085;28;20220;-86
2023/03/04 01:23:29;;;;;;;50.60;29.17;;;;;;;;;;5049753;28;20182;-85
2023/03/04 01:25:55;;;;;;;48.27;27.40;;;;;;;;;;5084294;28;20179;-85
2023/03/04 01:28:22;;;;;;;52.73;27.40;;;;;;;;;;5082979;28;20227;-85
2023/03/04 01:30:49;;;;;;;46.23;27.33;;;;;;;;;;5044884;28;20273;-85
2023/03/04 01:33:16;;;;;;;48.47;27.57;;;;;;;;;;5077413;28;20572;-85
2023/03/04 01:35:43;;;;;;;51.10;27.47;;;;;;;;;;5025021;28;20209;-86
2023/03/04 01:38:09;;;;;;;51.77;28.07;;;;;;;;;;5011555;28;20179;-86
2023/03/04 01:40:38;;;;;;;47.73;26.60;;;;;;;;;;5018315;28;20274;-85
2023/03/04 01:43:04;;;;;;;47.07;27.63;;;;;;;;;;5026951;28;20697;-85
2023/03/04 01:45:31;;;;;;;46.33;26.37;;;;;;;;;;5020241;28;20214;-85
2023/03/04 01:47:57;;;;;;;43.03;23.97;;;;;;;;;;5026178;28;20190;-84
2023/03/04 01:50:27;;;;;;;44.10;25.13;;;;;;;;;;5026143;28;20244;-86
2023/03/04 01:52:53;;;;;;;42.90;24.17;;;;;;;;;;5028091;28;20280;-86
2023/03/04 01:55:21;;;;;;;37.00;22.23;;;;;;;;;;5023266;28;20713;-86
2023/03/04 01:57:49;;;;;;;44.97;25.20;;;;;;;;;;5028079;28;20551;-85
2023/03/04 02:00:20;;;;;;;43.07;24.83;;;;;;;;;;5028436;28;20213;-85
2023/03/04 02:02:47;;;;;;;39.03;23.70;;;;;;;;;;5029658;28;20272;-85
2023/03/04 02:05:14;;;;;;;39.77;22.97;;;;;;;;;;5027786;28;20584;-85
2023/03/04 02:07:40;;;;;;;38.20;22.13;;;;;;;;;;5026824;28;20213;-85
2023/03/04 02:10:06;;;;;;;36.50;22.40;;;;;;;;;;5030900;28;20186;-84
2023/03/04 02:12:32;;;;;;;38.53;23.87;;;;;;;;;;5026091;28;20206;-85
2023/03/04 02:14:59;;;;;;;38.10;23.63;;;;;;;;;;5015651;28;20277;-85
2023/03/04 02:17:26;;;;;;;41.80;23.57;;;;;;;;;;5017501;28;20265;-85
2023/03/04 02:20:02;;;;;;;42.27;24.83;;;;;;;;;;5018188;28;20175;-85
2023/03/04 02:22:28;;;;;;;40.70;24.60;;;;;;;;;;5027702;28;20210;-86
2023/03/04 02:24:59;;;;;;;40.67;25.27;;;;;;;;;;5028943;28;20186;-85
2023/03/04 02:27:25;;;;;;;41.00;25.07;;;;;;;;;;5026579;28;20248;-85
2023/03/04 02:29:51;;;;;;;39.70;23.87;;;;;;;;;;5030297;28;20677;-85
2023/03/04 02:32:17;;;;;;;43.70;25.93;;;;;;;;;;5032635;28;20651;-86
2023/03/04 02:34:48;;;;;;;45.83;24.90;;;;;;;;;;5031576;28;20322;-86
2023/03/04 02:37:14;;;;;;;42.43;25.47;;;;;;;;;;5028730;28;20309;-86
2023/03/04 02:39:41;;;;;;;44.03;25.97;;;;;;;;;;5024371;28;20187;-85
2023/03/04 02:42:07;;;;;;;41.50;25.33;;;;;;;;;;5028318;28;20235;-85
2023/03/04 02:44:35;;;;;;;43.63;26.50;;;;;;;;;;5028949;28;20187;-85
2023/03/04 02:47:01;;;;;;;39.53;25.57;;;;;;;;;;5030363;28;20186;-85
2023/03/04 02:49:29;;;;;;;43.30;26.53;;;;;;;;;;5026450;28;20185;-85
2023/03/04 02:52:06;;;;;;;45.03;27.40;;;;;;;;;;5025725;28;20191;-86
2023/03/04 02:54:32;;;;;;;41.10;25.73;;;;;;;;;;5017649;28;20241;-85
2023/03/04 02:57:00;;;;;;;41.37;26.57;;;;;;;;;;5028462;28;20201;-86
2023/03/04 02:59:25;;;;;;;44.70;26.07;;;;;;;;;;5013373;28;20178;-85
2023/03/04 03:01:52;;;;;;;41.97;25.90;;;;;;;;;;5030985;28;20202;-85
2023/03/04 03:04:19;;;;;;;43.80;27.33;;;;;;;;;;5027810;28;20194;-84
2023/03/04 03:06:45;;;;;;;39.23;26.07;;;;;;;;;;5028540;28;20640;-85
2023/03/04 03:09:11;;;;;;;39.70;24.43;;;;;;;;;;5017220;28;20182;-85
2023/03/04 03:11:37;;;;;;;44.77;27.83;;;;;;;;;;5012832;28;20269;-85
2023/03/04 03:14:03;;;;;;;43.43;26.20;;;;;;;;;;5028346;28;20226;-86
2023/03/04 03:16:29;;;;;;;46.07;27.47;;;;;;;;;;5024163;28;20195;-85
2023/03/04 03:18:56;;;;;;;43.70;26.87;;;;;;;;;;5025566;28;20600;-85
2023/03/04 03:21:22;;;;;;;43.00;26.00;;;;;;;;;;5029482;28;20213;-85
2023/03/04 03:23:48;;;;;;;44.87;27.13;;;;;;;;;;5028704;28;20186;-85
2023/03/04 03:26:14;;;;;;;42.67;26.93;;;;;;;;;;5028486;28;20182;-85
2023/03/04 03:28:40;;;;;;;45.43;26.70;;;;;;;;;;5018348;28;20178;-85
2023/03/04 03:31:08;;;;;;;40.77;25.53;;;;;;;;;;5026451;28;20603;-84
2023/03/04 03:33:34;;;;;;;42.03;25.37;;;;;;;;;;5029256;28;20237;-84
2023/03/04 03:36:02;;;;;;;42.23;26.30;;;;;;;;;;5079215;28;20177;-84
2023/03/04 03:38:28;;;;;;;42.60;25.67;;;;;;;;;;5091914;28;20188;-85
2023/03/04 03:40:55;;;;;;;40.47;25.70;;;;;;;;;;5085054;28;20622;-86
2023/03/04 03:43:23;;;;;;;39.53;26.87;;;;;;;;;;5051556;28;20199;-86
2023/03/04 03:45:50;;;;;;;40.23;25.43;;;;;;;;;;5080006;28;20211;-85
2023/03/04 03:48:16;;;;;;;41.97;26.30;;;;;;;;;;5080060;28;20203;-85
2023/03/04 03:50:44;;;;;;;42.23;25.97;;;;;;;;;;5074904;28;20182;-85
2023/03/04 03:53:10;;;;;;;35.97;23.80;;;;;;;;;;5065949;28;20181;-84
2023/03/04 03:55:37;;;;;;;38.60;25.07;;;;;;;;;;5049843;28;20522;-83
2023/03/04 03:58:04;;;;;;;40.87;26.43;;;;;;;;;;5082409;28;20189;-84
2023/03/04 04:00:30;;;;;;;42.70;26.60;;;;;;;;;;5068199;28;20192;-85
2023/03/04 04:02:57;;;;;;;40.90;25.83;;;;;;;;;;5083023;28;20715;-85
2023/03/04 04:05:25;;;;;;;39.13;26.27;;;;;;;;;;5069522;28;20180;-85
2023/03/04 04:07:51;;;;;;;36.17;24.47;;;;;;;;;;5086404;28;20238;-84
2023/03/04 04:10:20;;;;;;;39.33;24.53;;;;;;;;;;5048769;28;20189;-84
2023/03/04 04:12:47;;;;;;;39.20;26.07;;;;;;;;;;5066326;28;20193;-84
2023/03/04 04:15:14;;;;;;;40.70;26.17;;;;;;;;;;5050453;28;20665;-84
2023/03/04 04:17:40;;;;;;;42.07;26.43;;;;;;;;;;5051316;28;20239;-83
2023/03/04 04:20:07;;;;;;;37.33;25.50;;;;;;;;;;5070152;28;20185;-85
2023/03/04 04:22:33;;;;;;;40.90;26.73;;;;;;;;;;5047621;28;20220;-84
2023/03/04 04:24:59;;;;;;;44.57;26.93;;;;;;;;;;5073680;28;20185;-86
2023/03/04 04:27:26;;;;;;;42.23;27.30;;;;;;;;;;5082157;28;20541;-84
2023/03/04 04:33:00;;;;;;;44.17;27.47;;;;;;;;;;5067228;28;20184;-84
2023/03/04 04:35:29;;;;;;;43.27;26.90;;;;;;;;;;5083195;28;20232;-85
2023/03/04 04:41:00;;;;;;;40.63;27.57;;;;;;;;;;5074495;28;20536;-86
2023/03/04 04:43:29;;;;;;;39.07;25.17;;;;;;;;;;5069618;28;20177;-86
2023/03/04 04:45:58;;;;;;;38.63;26.10;;;;;;;;;;5046322;28;20199;-86
2023/03/04 04:48:24;;;;;;;40.90;25.33;;;;;;;;;;5074663;28;20196;-86
2023/03/04 04:50:55;;;;;;;34.83;24.03;;;;;;;;;;5072215;28;20181;-86
2023/03/04 04:53:21;;;;;;;35.83;24.07;;;;;;;;;;5066776;28;20176;-86
2023/03/04 04:55:47;;;;;;;34.73;23.63;;;;;;;;;;5080504;28;20181;-86
2023/03/04 04:58:13;;;;;;;36.07;24.77;;;;;;;;;;5077875;28;20272;-87
2023/03/04 05:00:45;;;;;;;39.17;24.37;;;;;;;;;;5072832;28;20580;-86
2023/03/04 05:03:11;;;;;;;34.43;23.50;;;;;;;;;;5076684;28;20193;-86
2023/03/04 05:05:37;;;;;;;37.10;23.83;;;;;;;;;;5076249;28;20526;-85
2023/03/04 05:08:03;;;;;;;34.17;22.90;;;;;;;;;;5085787;28;20234;-84
2023/03/04 05:10:29;;;;;;;35.73;23.10;;;;;;;;;;5047244;28;20181;-86
2023/03/04 05:12:56;;;;;;;33.77;22.93;;;;;;;;;;5046767;28;20189;-85
2023/03/04 05:15:22;;;;;;;36.43;23.77;;;;;;;;;;5050013;28;20184;-85
2023/03/04 05:17:50;;;;;;;36.53;24.00;;;;;;;;;;5049881;28;20221;-84
2023/03/04 05:20:17;;;;;;;37.27;23.83;;;;;;;;;;5068963;28;20634;-84
2023/03/04 05:22:55;;;;;;;36.03;23.00;;;;;;;;;;5048907;28;20205;-84
2023/03/04 05:25:21;;;;;;;28.83;21.43;;;;;;;;;;5041342;28;20177;-84
2023/03/04 05:27:48;;;;;;;37.80;22.83;;;;;;;;;;5046432;28;20185;-84
2023/03/04 05:30:14;;;;;;;28.80;20.20;;;;;;;;;;5055771;28;20657;-84
2023/03/04 05:32:40;;;;;;;32.30;21.10;;;;;;;;;;5052868;28;20189;-85
2023/03/04 05:35:06;;;;;;;31.47;21.57;;;;;;;;;;5084049;28;20254;-85
2023/03/04 05:37:32;;;;;;;33.03;21.57;;;;;;;;;;5067401;28;20189;-83
2023/03/04 05:39:58;;;;;;;35.70;22.27;;;;;;;;;;5062070;28;20197;-84
2023/03/04 05:42:25;;;;;;;34.57;22.40;;;;;;;;;;5086346;28;20216;-85
2023/03/04 05:44:51;;;;;;;34.50;23.03;;;;;;;;;;5069518;28;20835;-85
2023/03/04 05:47:17;;;;;;;33.10;22.00;;;;;;;;;;5086562;28;20216;-86
2023/03/04 05:49:43;;;;;;;32.27;21.80;;;;;;;;;;5070816;28;20185;-86
2023/03/04 05:52:09;;;;;;;32.17;21.63;;;;;;;;;;5045901;28;20823;-85
2023/03/04 05:54:35;;;;;;;32.70;22.57;;;;;;;;;;5063882;28;20532;-85
2023/03/04 05:57:02;;;;;;;32.77;21.80;;;;;;;;;;5072831;28;20182;-85
2023/03/04 05:59:29;;;;;;;27.83;20.20;;;;;;;;;;5079181;28;20173;-85
2023/03/04 06:01:55;;;;;;;35.43;21.67;;;;;;;;;;5050790;28;20213;-85
2023/03/04 06:04:22;;;;;;;31.97;22.43;;;;;;;;;;5053066;28;20653;-85
2023/03/04 06:06:48;;;;;;;33.87;22.30;;;;;;;;;;5046560;28;20326;-85
2023/03/04 06:09:14;;;;;;;32.13;21.97;;;;;;;;;;5052328;28;20212;-85
2023/03/04 06:11:42;;;;;;;35.20;22.60;;;;;;;;;;5055119;28;20192;-86
2023/03/04 06:14:08;;;;;;;31.67;22.47;;;;;;;;;;5054633;28;20266;-85
2023/03/04 06:16:35;;;;;;;31.07;21.87;;;;;;;;;;5043418;28;20222;-85
2023/03/04 06:19:01;;;;;;;33.90;22.47;;;;;;;;;;5062181;28;20600;-87
2023/03/04 06:24:30;;;;;;;34.00;21.90;;;;;;;;;;5068771;28;20244;-86
2023/03/04 06:26:56;;;;;;;29.53;20.73;;;;;;;;;;5085299;28;20181;-86
2023/03/04 06:29:23;;;;;;;33.40;21.17;;;;;;;;;;5085202;28;20184;-85
2023/03/04 06:31:49;;;;;;;33.10;22.30;;;;;;;;;;5052180;28;20185;-84
2023/03/04 06:34:15;;;;;;;32.77;21.20;;;;;;;;;;5052298;28;20310;-85
2023/03/04 06:36:42;;;;;;;29.13;20.30;;;;;;;;;;5084235;28;20189;-88
2023/03/04 06:39:08;;;;;;;36.00;21.30;;;;;;;;;;5078468;28;20209;-84
2023/03/04 06:41:35;;;;;;;32.93;21.87;;;;;;;;;;5095857;28;20240;-86
2023/03/04 06:44:03;;;;;;;32.60;20.80;;;;;;;;;;5048310;28;20177;-85
2023/03/04 06:46:29;;;;;;;32.30;21.47;;;;;;;;;;5041202;28;20246;-83
2023/03/04 06:48:55;;;;;;;29.07;20.53;;;;;;;;;;5051968;28;20181;-85
2023/03/04 06:51:21;;;;;;;32.30;21.27;;;;;;;;;;5081886;28;20192;-85
2023/03/04 06:53:47;;;;;;;31.27;20.57;;;;;;;;;;5084638;28;20298;-85
2023/03/04 06:56:15;;;;;;;33.17;20.93;;;;;;;;;;5084166;28;20222;-85
2023/03/04 06:58:41;;;;;;;29.93;19.77;;;;;;;;;;5079294;28;20295;-85
2023/03/04 07:01:11;;;;;;;31.73;21.73;;;;;;;;;;5048418;28;20317;-85
2023/03/04 07:03:37;;;;;;;30.47;21.83;;;;;;;;;;5066575;28;20571;-84
2023/03/04 07:06:03;;;;;;;29.13;20.87;;;;;;;;;;5052654;28;20177;-85
2023/03/04 07:08:29;;;;;;;30.90;21.33;;;;;;;;;;5070758;28;20181;-84
2023/03/04 07:10:56;;;;;;;29.97;20.97;;;;;;;;;;5085319;28;20663;-84
2023/03/04 07:13:22;;;;;;;30.97;21.03;;;;;;;;;;5052221;28;20181;-83
2023/03/04 07:15:48;;;;;;;30.77;20.37;;;;;;;;;;5049885;28;20189;-85
2023/03/04 07:18:14;;;;;;;30.23;20.13;;;;;;;;;;5069065;28;20539;-83
2023/03/04 07:20:40;;;;;;;28.77;20.10;;;;;;;;;;5072101;28;20238;-85
2023/03/04 07:23:07;;;;;;;30.47;19.13;;;;;;;;;;5077864;28;20217;-84
2023/03/04 07:25:33;;;;;;;30.60;19.53;;;;;;;;;;5046835;28;20654;-84
2023/03/04 07:27:59;;;;;;;30.80;18.90;;;;;;;;;;5047243;28;20177;-84
2023/03/04 07:30:25;;;;;;;26.17;18.07;;;;;;;;;;5079818;28;20584;-84
2023/03/04 07:32:51;;;;;;;32.67;21.20;;;;;;;;;;5084531;28;20200;-83
2023/03/04 07:35:18;;;;;;;29.20;19.30;;;;;;;;;;5082525;28;20228;-84
2023/03/04 07:37:43;;;;;;;28.97;17.80;;;;;;;;;;5051532;28;20615;-84
2023/03/04 07:40:10;;;;;;;28.00;18.27;;;;;;;;;;5083606;28;20177;-84
2023/03/04 07:42:36;;;;;;;28.73;18.37;;;;;;;;;;5067860;28;20261;-84
2023/03/04 07:45:08;;;;;;;29.63;19.93;;;;;;;;;;5059428;28;20548;-83
2023/03/04 07:47:35;;;;;;;26.60;18.00;;;;;;;;;;5081856;28;20180;-85
2023/03/04 07:50:01;;;;;;;27.87;18.27;;;;;;;;;;5048348;28;20177;-83
2023/03/04 07:52:27;;;;;;;33.03;20.37;;;;;;;;;;5049464;28;20210;-84
2023/03/04 07:54:53;;;;;;;30.60;18.30;;;;;;;;;;5047428;28;20680;-85
2023/03/04 07:57:20;;;;;;;25.17;16.37;;;;;;;;;;5068522;28;20938;-82
2023/03/04 07:59:46;;;;;;;26.87;18.33;;;;;;;;;;5083278;28;20575;-84
2023/03/04 08:02:14;;;;;;;24.97;18.33;;;;;;;;;;5080780;28;20353;-83
2023/03/04 08:04:41;;;;;;;24.90;18.00;;;;;;;;;;5083945;28;20209;-84
2023/03/04 08:07:08;;;;;;;31.43;18.30;;;;;;;;;;5049596;28;20210;-88
2023/03/04 08:09:35;;;;;;;29.80;18.43;;;;;;;;;;5059555;28;20185;-83
2023/03/04 08:12:01;;;;;;;26.63;17.90;;;;;;;;;;5051764;28;20210;-82
2023/03/04 08:14:27;;;;;;;26.47;17.03;;;;;;;;;;5081690;28;20169;-83
2023/03/04 08:16:53;;;;;;;30.93;19.37;;;;;;;;;;5050517;28;20801;-83
2023/03/04 08:19:20;;;;;;;29.63;17.93;;;;;;;;;;5047835;28;20184;-84
2023/03/04 08:21:46;;;;;;;30.93;18.10;;;;;;;;;;5083298;28;20708;-84
2023/03/04 08:24:12;;;;;;;28.40;18.53;;;;;;;;;;5050919;28;20328;-83
2023/03/04 08:26:44;;;;;;;29.37;18.57;;;;;;;;;;5065428;28;20841;-84
2023/03/04 08:29:11;;;;;;;29.97;19.03;;;;;;;;;;5049441;28;20664;-84
2023/03/04 08:31:38;;;;;;;29.63;17.67;;;;;;;;;;5065571;28;20180;-85
2023/03/04 08:34:04;;;;;;;31.03;17.67;;;;;;;;;;5080829;28;20221;-84
2023/03/04 08:36:31;;;;;;;26.97;19.07;;;;;;;;;;5080266;28;20797;-83
2023/03/04 08:38:57;;;;;;;26.03;18.43;;;;;;;;;;5084325;28;20189;-83
2023/03/04 08:41:26;;;;;;;27.17;17.60;;;;;;;;;;5072452;28;20766;-83
2023/03/04 08:43:52;;;;;;;24.40;16.53;;;;;;;;;;5058152;28;20220;-84
2023/03/04 08:46:18;;;;;;;25.00;16.93;;;;;;;;;;5075611;28;20189;-83
2023/03/04 08:48:44;;;;;;;25.13;16.70;;;;;;;;;;5079391;28;20227;-82
2023/03/04 08:51:11;;;;;;;28.93;18.13;;;;;;;;;;5079315;28;20181;-83
2023/03/04 08:53:37;;;;;;;27.20;17.50;;;;;;;;;;5079153;28;20659;-83
2023/03/04 08:56:04;;;;;;;26.77;17.70;;;;;;;;;;5063672;28;20184;-83
2023/03/04 08:58:30;;;;;;;22.60;16.20;;;;;;;;;;5045348;28;20192;-83
2023/03/04 09:00:56;;;;;;;28.00;17.70;;;;;;;;;;5073212;28;20635;-83
2023/03/04 09:03:22;;;;;;;27.10;17.20;;;;;;;;;;5066478;28;20177;-83
2023/03/04 09:05:48;;;;;;;35.13;18.93;;;;;;;;;;5073125;28;20648;-83
2023/03/04 09:08:15;;;;;;;29.97;17.50;;;;;;;;;;5062392;28;20579;-85
2023/03/04 09:10:41;;;;;;;28.87;18.00;;;;;;;;;;5063085;28;20192;-85
2023/03/04 09:13:10;;;;;;;26.90;17.10;;;;;;;;;;5050271;28;20193;-84
2023/03/04 09:15:36;;;;;;;27.17;15.43;;;;;;;;;;5082872;28;20227;-83
2023/03/04 09:18:03;;;;;;;28.50;16.47;;;;;;;;;;5083458;28;20187;-85
2023/03/04 09:20:30;;;;;;;29.53;16.50;;;;;;;;;;5082243;28;20703;-83
2023/03/04 09:22:57;;;;;;;25.50;16.07;;;;;;;;;;5084007;28;20217;-84
2023/03/04 09:25:24;;;;;;;30.10;17.27;;;;;;;;;;5081497;28;20173;-84
2023/03/04 09:27:50;;;;;;;24.87;14.93;;;;;;;;;;5081851;28;20279;-83
2023/03/04 09:30:16;;;;;;;25.07;16.50;;;;;;;;;;5064091;28;20188;-83
2023/03/04 09:32:42;;;;;;;31.20;17.33;;;;;;;;;;5050446;28;20547;-83
2023/03/04 09:35:08;;;;;;;29.87;16.93;;;;;;;;;;5068066;28;20646;-85
2023/03/04 09:37:35;;;;;;;27.40;17.13;;;;;;;;;;5067546;28;20638;-84
2023/03/04 09:40:01;;;;;;;27.77;16.40;;;;;;;;;;5056406;28;20654;-84
2023/03/04 09:42:36;;;;;;;28.53;17.40;;;;;;;;;;5079368;28;20667;-84
2023/03/04 09:45:05;;;;;;;26.10;18.20;;;;;;;;;;5084390;28;20169;-82
2023/03/04 09:47:33;;;;;;;30.67;17.10;;;;;;;;;;5090002;28;20154;-83
2023/03/04 09:50:06;;;;;;;27.63;17.10;;;;;;;;;;5083319;28;20177;-82
2023/03/04 09:52:50;;;;;;;27.63;15.67;;;;;;;;;;5057443;28;20177;-82
2023/03/04 09:55:24;;;;;;;30.80;17.27;;;;;;;;;;5082150;28;20181;-83
2023/03/04 09:57:50;;;;;;;25.03;16.87;;;;;;;;;;5067641;28;20221;-82
2023/03/04 10:00:20;;;;;;;24.23;14.83;;;;;;;;;;5079082;28;20538;-85
2023/03/04 10:03:01;;;;;;;24.67;15.40;;;;;;;;;;5076391;28;20212;-82
2023/03/04 10:05:29;;;;;;;28.87;15.37;;;;;;;;;;5060472;28;20808;-81
2023/03/04 10:07:57;;;;;;;30.83;16.33;;;;;;;;;;5060634;28;20330;-80
2023/03/04 10:10:26;;;;;;;24.40;15.43;;;;;;;;;;5040728;28;20181;-80
2023/03/04 10:12:55;;;;;;;23.93;14.80;;;;;;;;;;5046291;28;20557;-80
2023/03/04 10:15:31;;;;;;;21.53;14.97;;;;;;;;;;5067279;28;20209;-81
2023/03/04 10:18:02;;;;;;;21.70;14.83;;;;;;;;;;5062264;28;20258;-81
2023/03/04 10:20:32;;;;;;;27.73;14.87;;;;;;;;;;5049823;28;20192;-80
2023/03/04 10:23:01;;;;;;;29.13;15.73;;;;;;;;;;5043668;28;20670;-81
2023/03/04 10:25:29;;;;;;;29.77;15.90;;;;;;;;;;5062500;28;20192;-81
2023/03/04 10:27:55;;;;;;;32.37;15.67;;;;;;;;;;5086187;28;20177;-86
2023/03/04 10:30:27;;;;;;;22.80;14.43;;;;;;;;;;5088354;28;20181;-82
2023/03/04 10:32:54;;;;;;;33.00;14.67;;;;;;;;;;5083428;28;20672;-82
2023/03/04 10:35:22;;;;;;;26.40;15.50;;;;;;;;;;5084465;28;20638;-82
2023/03/04 10:37:50;;;;;;;24.47;13.67;;;;;;;;;;5047124;28;20272;-83
2023/03/04 10:40:24;;;;;;;25.30;14.63;;;;;;;;;;5059771;28;20177;-82
2023/03/04 10:42:51;;;;;;;26.30;14.17;;;;;;;;;;5082260;28;20200;-81
2023/03/04 10:45:25;;;;;;;27.93;14.03;;;;;;;;;;5079031;28;20273;-82
2023/03/04 10:47:52;;;;;;;29.00;15.10;;;;;;;;;;5082415;28;20177;-82
2023/03/04 10:50:25;;;;;;;22.57;13.23;;;;;;;;;;5050631;28;20212;-82
2023/03/04 10:52:54;;;;;;;28.27;14.37;;;;;;;;;;5049940;28;20663;-83
2023/03/04 10:55:40;;;;;;;27.00;15.53;;;;;;;;;;5070156;28;20177;-83
2023/03/04 10:58:12;;;;;;;29.77;14.57;;;;;;;;;;5071324;28;20177;-81
2023/03/04 11:00:38;;;;;;;32.67;14.60;;;;;;;;;;5049227;28;20186;-81
2023/03/04 11:03:23;;;;;;;26.60;12.87;;;;;;;;;;5086047;28;20271;-81
2023/03/04 11:05:50;;;;;;;28.37;13.53;;;;;;;;;;5068371;28;20185;-81
2023/03/04 11:08:18;;;;;;;23.30;14.43;;;;;;;;;;5063112;28;20181;-81
2023/03/04 11:10:44;;;;;;;22.90;13.23;;;;;;;;;;5065402;28;20645;-81
2023/03/04 11:16:29;;;;;;;22.50;12.73;;;;;;;;;;5064808;28;20512;-81
2023/03/04 11:18:58;;;;;;;32.57;13.80;;;;;;;;;;5055994;28;20182;-82
2023/03/04 11:21:26;;;;;;;24.27;12.83;;;;;;;;;;5076092;28;20200;-81
2023/03/04 11:23:55;;;;;;;23.80;13.07;;;;;;;;;;5063462;28;20195;-81
2023/03/04 11:26:25;;;;;;;21.03;13.57;;;;;;;;;;5065298;28;20177;-81
2023/03/04 11:28:53;;;;;;;22.97;14.07;;;;;;;;;;5049437;28;20184;-81
2023/03/04 11:31:36;;;;;;;22.43;13.73;;;;;;;;;;5043576;28;20219;-81
2023/03/04 11:34:08;;;;;;;26.07;14.40;;;;;;;;;;5064523;28;20709;-81
2023/03/04 11:36:49;;;;;;;23.87;14.07;;;;;;;;;;5071418;28;20181;-81
2023/03/04 11:39:23;;;;;;;23.63;14.40;;;;;;;;;;5061113;28;20173;-81
2023/03/04 11:41:56;;;;;;;28.73;14.57;;;;;;;;;;5071043;28;20209;-81
2023/03/04 11:44:24;;;;;;;25.07;15.43;;;;;;;;;;5076402;28;20226;-81
2023/03/04 11:47:14;;;;;;;27.90;14.67;;;;;;;;;;5078394;28;20619;-81
2023/03/04 11:49:49;;;;;;;23.87;14.50;;;;;;;;;;5069686;28;20875;-81
2023/03/04 11:52:21;;;;;;;38.17;17.83;;;;;;;;;;5073662;28;20209;-81
2023/03/04 11:54:47;;;;;;;28.63;15.40;;;;;;;;;;5054138;28;20555;-81
2023/03/04 11:57:19;;;;;;;28.93;15.50;;;;;;;;;;5053473;28;20180;-82
2023/03/04 11:59:52;;;;;;;26.43;16.30;;;;;;;;;;5048316;28;20745;-81
2023/03/04 12:02:17;;;;;;;29.73;15.17;;;;;;;;;;5059400;28;20213;-82
2023/03/04 12:05:02;;;;;;;29.83;17.60;;;;;;;;;;5080236;28;20354;-81
2023/03/04 12:07:40;;;;;;;25.57;15.87;;;;;;;;;;5068817;28;20182;-81
2023/03/04 12:10:15;;;;;;;25.17;15.00;;;;;;;;;;5052458;28;20196;-82
2023/03/04 12:12:56;;;;;;;28.23;16.17;;;;;;;;;;5066955;28;20180;-82
2023/03/04 12:15:43;;;;;;;30.93;17.27;;;;;;;;;;5075872;28;20263;-82
2023/03/04 12:18:34;;;;;;;30.27;17.77;;;;;;;;;;5050444;28;20173;-82
2023/03/04 12:21:09;;;;;;;34.10;19.37;;;;;;;;;;5068076;28;20177;-81
2023/03/04 12:23:43;;;;;;;34.73;20.43;;;;;;;;;;5066539;28;20184;-81
2023/03/04 12:26:22;;;;;;;32.47;19.17;;;;;;;;;;5047517;28;20210;-82
2023/03/04 12:28:56;;;;;;;32.50;21.67;;;;;;;;;;5049136;28;20192;-81
2023/03/04 12:31:42;;;;;;;36.57;23.43;;;;;;;;;;5048426;28;20195;-81
2023/03/04 12:34:20;;;;;;;37.57;18.80;;;;;;;;;;5044401;28;20246;-81
2023/03/04 12:36:55;;;;;;;28.53;18.50;;;;;;;;;;5019309;28;20693;-81
2023/03/04 12:39:29;;;;;;;29.47;19.40;;;;;;;;;;5025098;28;20181;-81
2023/03/04 12:42:18;;;;;;;39.77;22.63;;;;;;;;;;5019078;28;20217;-81
2023/03/04 12:44:58;;;;;;;36.03;21.70;;;;;;;;;;5025665;28;20264;-83
2023/03/04 12:47:27;;;;;;;33.17;19.57;;;;;;;;;;5026739;28;20182;-82
2023/03/04 12:50:06;;;;;;;36.63;22.03;;;;;;;;;;5022174;28;20186;-82
2023/03/04 12:52:52;;;;;;;37.20;22.83;;;;;;;;;;5018391;28;20186;-81
2023/03/04 12:55:23;;;;;;;43.07;25.23;;;;;;;;;;5015964;28;20186;-83
2023/03/04 12:57:50;;;;;;;38.20;23.73;;;;;;;;;;5020815;28;20181;-81
2023/03/04 13:00:16;;;;;;;36.50;22.97;;;;;;;;;;5027058;28;20209;-82
2023/03/04 13:02:54;;;;;;;43.67;27.40;;;;;;;;;;5022409;28;20252;-82
2023/03/04 13:05:32;;;;;;;56.03;33.77;;;;;;;;;;5019215;28;20202;-80
2023/03/04 13:08:17;;;;;;;58.50;37.70;;;;;;;;;;5012025;28;20488;-81
2023/03/04 13:10:43;;;;;;;37.27;26.63;;;;;;;;;;5025362;28;20549;-81
2023/03/04 13:13:28;;;;;;;38.03;24.60;;;;;;;;;;5015760;28;20174;-83
2023/03/04 13:16:05;;;;;;;38.67;23.73;;;;;;;;;;5022419;28;20193;-84
2023/03/04 13:18:33;;;;;;;31.67;23.60;;;;;;;;;;5026637;28;20635;-83
2023/03/04 13:21:06;;;;;;;30.17;20.33;;;;;;;;;;5024013;28;20269;-81
2023/03/04 13:23:32;;;;;;;31.40;19.67;;;;;;;;;;5024758;28;20248;-83
2023/03/04 13:25:58;;;;;;;27.80;18.67;;;;;;;;;;5024764;28;20204;-83
2023/03/04 13:28:26;;;;;;;28.03;17.20;;;;;;;;;;5025052;28;20542;-83
2023/03/04 13:30:54;;;;;;;26.13;18.27;;;;;;;;;;5027218;28;20181;-84
2023/03/04 13:33:23;;;;;;;23.73;16.40;;;;;;;;;;5025850;28;20187;-82
2023/03/04 13:36:01;;;;;;;22.00;15.20;;;;;;;;;;5069715;28;20213;-83
2023/03/04 13:38:27;;;;;;;26.73;17.97;;;;;;;;;;5054788;28;20256;-83
2023/03/04 13:41:05;;;;;;;27.23;18.40;;;;;;;;;;5050807;28;20729;-83
2023/03/04 13:43:39;;;;;;;23.93;16.47;;;;;;;;;;5065231;28;20185;-83
2023/03/04 13:46:22;;;;;;;22.23;15.60;;;;;;;;;;5081705;28;20180;-84
2023/03/04 13:48:51;;;;;;;16.80;13.77;;;;;;;;;;5084371;28;20699;-83
2023/03/04 13:51:32;;;;;;;17.97;12.37;;;;;;;;;;5080081;28;20181;-83
2023/03/04 13:53:58;;;;;;;13.30;9.77;;;;;;;;;;5085431;28;20181;-82
2023/03/04 13:56:30;;;;;;;15.27;9.40;;;;;;;;;;5063432;28;20189;-82
2023/03/04 13:59:08;;;;;;;18.17;8.37;;;;;;;;;;5060048;28;20268;-83
2023/03/04 14:01:35;;;;;;;14.13;8.20;;;;;;;;;;5038762;28;20213;-82
2023/03/04 14:04:09;;;;;;;12.37;6.63;;;;;;;;;;5037131;28;20247;-82
2023/03/04 14:06:40;;;;;;;8.43;5.10;;;;;;;;;;5050921;28;20200;-82
2023/03/04 14:09:13;;;;;;;11.33;5.77;;;;;;;;;;5041671;28;20182;-83
2023/03/04 14:11:42;;;;;;;10.47;5.60;;;;;;;;;;5062524;28;20534;-82
2023/03/04 14:14:12;;;;;;;9.80;6.43;;;;;;;;;;5066608;28;20272;-83
2023/03/04 14:16:58;;;;;;;14.27;6.57;;;;;;;;;;5051789;28;20278;-82
2023/03/04 14:19:24;;;;;;;14.23;7.50;;;;;;;;;;5043439;28;20190;-85
2023/03/04 14:21:50;;;;;;;11.80;7.70;;;;;;;;;;5038840;28;20232;-85
2023/03/04 14:24:18;;;;;;;12.67;8.10;;;;;;;;;;5054775;28;20188;-84
2023/03/04 14:26:44;;;;;;;20.23;9.70;;;;;;;;;;5050571;28;20557;-86
2023/03/04 14:29:39;;;;;;;17.77;10.70;;;;;;;;;;5056925;28;20264;-86
2023/03/04 14:32:36;;;;;;;18.33;11.20;;;;;;;;;;5035234;28;20204;-84
2023/03/04 14:35:05;;;;;;;18.93;10.70;;;;;;;;;;5086764;28;20212;-84
2023/03/04 14:37:40;;;;;;;16.53;10.00;;;;;;;;;;5071125;28;20184;-85
2023/03/04 14:40:07;;;;;;;19.63;10.20;;;;;;;;;;5086109;28;20181;-84
2023/03/04 14:42:37;;;;;;;17.80;10.30;;;;;;;;;;5074759;28;20259;-84
2023/03/04 14:45:03;;;;;;;16.80;10.93;;;;;;;;;;5081671;28;20193;-84